createdAt,value
2019-03-15T00:00:35.495Z,6.80
2019-03-15T00:03:11.697Z,6.80
2019-03-15T00:05:54.175Z,6.80
2019-03-15T00:08:31.339Z,6.80
2019-03-15T00:11:13.272Z,6.90
2019-03-15T00:13:49.772Z,6.90
2019-03-15T00:16:33.030Z,6.80
2019-03-15T00:19:09.324Z,6.80
2019-03-15T00:21:51.187Z,6.80
2019-03-15T00:24:27.161Z,6.80
2019-03-15T00:27:09.853Z,6.80
2019-03-15T00:29:45.348Z,6.80
2019-03-15T00:32:28.800Z,6.80
2019-03-15T00:35:11.392Z,6.80
2019-03-15T00:37:47.389Z,6.80
2019-03-15T00:40:30.105Z,6.80
2019-03-15T00:43:12.405Z,6.80
2019-03-15T00:45:54.966Z,6.80
2019-03-15T00:48:37.671Z,6.80
2019-03-15T00:51:13.724Z,6.80
2019-03-15T00:53:49.486Z,6.80
2019-03-15T00:56:31.732Z,6.80
2019-03-15T00:59:21.744Z,6.80
2019-03-15T01:01:57.804Z,6.80
2019-03-15T01:04:40.087Z,6.80
2019-03-15T01:07:22.959Z,6.80
2019-03-15T01:09:59.279Z,6.70
2019-03-15T01:12:42.505Z,6.70
2019-03-15T01:15:29.069Z,6.80
2019-03-15T01:18:04.579Z,6.70
2019-03-15T01:20:47.742Z,6.70
2019-03-15T01:23:29.781Z,6.70
2019-03-15T01:26:06.213Z,6.70
2019-03-15T01:28:48.380Z,6.70
2019-03-15T01:31:24.694Z,6.70
2019-03-15T01:34:07.480Z,6.80
2019-03-15T01:36:43.040Z,6.80
2019-03-15T01:39:25.280Z,6.80
2019-03-15T01:42:01.656Z,6.80
2019-03-15T01:44:44.373Z,6.80
2019-03-15T01:47:20.424Z,6.80
2019-03-15T01:50:03.558Z,6.80
2019-03-15T01:52:39.762Z,6.70
2019-03-15T01:55:22.558Z,6.80
2019-03-15T01:57:59.018Z,6.70
2019-03-15T02:00:41.889Z,6.80
2019-03-15T02:03:24.056Z,6.80
2019-03-15T02:06:06.908Z,6.80
2019-03-15T02:08:42.711Z,6.80
2019-03-15T02:11:25.096Z,6.80
2019-03-15T02:14:08.359Z,6.80
2019-03-15T02:16:51.207Z,6.80
2019-03-15T02:19:26.688Z,6.80
2019-03-15T02:22:08.998Z,6.80
2019-03-15T02:24:52.208Z,6.80
2019-03-15T02:27:34.543Z,6.80
2019-03-15T02:30:13.396Z,6.80
2019-03-15T02:32:49.159Z,6.80
2019-03-15T02:35:32.336Z,6.80
2019-03-15T02:38:22.039Z,6.80
2019-03-15T02:40:57.790Z,6.80
2019-03-15T02:43:39.871Z,6.80
2019-03-15T02:46:22.375Z,6.80
2019-03-15T02:48:58.840Z,6.80
2019-03-15T02:51:40.373Z,6.80
2019-03-15T02:54:23.099Z,6.80
2019-03-15T02:56:58.696Z,6.80
2019-03-15T02:59:41.014Z,6.80
2019-03-15T03:02:17.037Z,6.80
2019-03-15T03:04:58.736Z,6.80
2019-03-15T03:07:34.565Z,6.80
2019-03-15T03:10:17.392Z,6.80
2019-03-15T03:12:53.751Z,6.80
2019-03-15T03:15:36.774Z,6.80
2019-03-15T03:18:12.916Z,6.80
2019-03-15T03:20:55.416Z,6.80
2019-03-15T03:23:38.611Z,6.80
2019-03-15T03:26:20.660Z,6.80
2019-03-15T03:28:57.044Z,6.80
2019-03-15T03:31:40.257Z,6.80
2019-03-15T03:34:16.784Z,6.80
2019-03-15T03:36:59.701Z,6.80
2019-03-15T03:39:35.565Z,6.80
2019-03-15T03:42:18.443Z,6.80
2019-03-15T03:44:54.768Z,6.80
2019-03-15T03:47:36.839Z,6.80
2019-03-15T03:50:16.813Z,6.80
2019-03-15T03:52:58.405Z,6.80
2019-03-15T03:55:34.126Z,6.80
2019-03-15T03:58:17.089Z,6.80
2019-03-15T04:01:00.394Z,6.80
2019-03-15T04:04:02.963Z,6.80
2019-03-15T04:06:44.620Z,6.80
2019-03-15T04:09:26.585Z,6.80
2019-03-15T04:12:02.106Z,6.70
2019-03-15T04:14:44.752Z,6.80
2019-03-15T04:17:26.441Z,6.70
2019-03-15T04:20:09.639Z,6.80
2019-03-15T04:22:45.689Z,6.80
2019-03-15T04:25:28.866Z,6.80
2019-03-15T04:28:04.741Z,6.90
2019-03-15T04:30:46.514Z,6.80
2019-03-15T04:33:22.905Z,6.80
2019-03-15T04:36:05.344Z,6.80
2019-03-15T04:38:41.676Z,6.80
2019-03-15T04:41:24.680Z,6.80
2019-03-15T04:44:01.053Z,6.80
2019-03-15T04:46:43.514Z,6.80
2019-03-15T04:49:19.495Z,6.70
2019-03-15T04:52:01.692Z,6.80
2019-03-15T04:54:38.050Z,6.80
2019-03-15T04:57:20.329Z,6.80
2019-03-15T05:00:02.637Z,6.80
2019-03-15T05:02:51.415Z,6.90
2019-03-15T05:05:34.576Z,6.80
2019-03-15T05:08:10.477Z,6.80
2019-03-15T05:10:53.304Z,6.80
2019-03-15T05:16:22.762Z,6.80
2019-03-15T05:18:58.393Z,6.70
2019-03-15T05:21:41.294Z,6.80
2019-03-15T05:24:23.425Z,6.80
2019-03-15T05:27:05.990Z,6.80
2019-03-15T05:29:41.692Z,6.80
2019-03-15T05:32:23.656Z,6.80
2019-03-15T05:35:06.031Z,6.70
2019-03-15T05:37:48.523Z,6.60
2019-03-15T05:40:24.715Z,6.60
2019-03-15T05:43:07.730Z,6.60
2019-03-15T05:45:44.073Z,6.50
2019-03-15T05:48:27.025Z,6.50
2019-03-15T05:51:10.101Z,6.40
2019-03-15T05:53:52.815Z,6.40
2019-03-15T05:56:29.212Z,6.60
2019-03-15T05:59:11.408Z,6.50
2019-03-15T06:01:47.721Z,6.60
2019-03-15T06:04:30.581Z,6.70
2019-03-15T06:07:07.382Z,6.60
2019-03-15T06:09:49.270Z,6.60
2019-03-15T06:12:31.773Z,6.60
2019-03-15T06:15:33.792Z,6.50
2019-03-15T06:18:15.908Z,6.50
2019-03-15T06:20:51.756Z,6.50
2019-03-15T06:23:33.492Z,6.60
2019-03-15T06:26:16.079Z,6.60
2019-03-15T06:29:05.376Z,6.60
2019-03-15T06:31:41.289Z,6.60
2019-03-15T06:34:23.931Z,6.60
2019-03-15T06:37:19.849Z,6.60
2019-03-15T06:40:02.945Z,6.60
2019-03-15T06:42:39.374Z,6.50
2019-03-15T06:45:22.839Z,6.60
2019-03-15T06:47:59.145Z,6.60
2019-03-15T06:50:41.783Z,6.50
2019-03-15T06:53:18.328Z,6.60
2019-03-15T06:56:00.431Z,6.50
2019-03-15T06:58:36.415Z,6.50
2019-03-15T07:01:18.543Z,6.50
2019-03-15T07:04:00.354Z,6.40
2019-03-15T07:06:36.283Z,6.40
2019-03-15T07:09:18.793Z,6.40
2019-03-15T07:11:54.935Z,6.40
2019-03-15T07:14:37.535Z,6.20
2019-03-15T07:17:20.672Z,6.30
2019-03-15T07:20:03.713Z,6.20
2019-03-15T07:22:40.149Z,6.20
2019-03-15T07:25:23.015Z,6.30
2019-03-15T07:27:59.437Z,6.20
2019-03-15T07:30:41.773Z,6.30
2019-03-15T07:33:17.390Z,6.30
2019-03-15T07:35:59.677Z,6.20
2019-03-15T07:38:42.586Z,6.30
2019-03-15T07:41:18.710Z,6.10
2019-03-15T07:44:01.576Z,6.10
2019-03-15T07:46:51.220Z,6.00
2019-03-15T07:49:27.530Z,6.00
2019-03-15T07:52:09.734Z,6.00
2019-03-15T07:54:45.494Z,5.90
2019-03-15T07:57:27.772Z,6.00
2019-03-15T08:00:12.836Z,5.90
2019-03-15T08:02:49.332Z,5.90
2019-03-15T08:05:25.611Z,6.00
2019-03-15T08:08:08.530Z,6.00
2019-03-15T08:10:58.027Z,6.10
2019-03-15T08:13:47.458Z,6.30
2019-03-15T08:16:30.350Z,6.20
2019-03-15T08:19:05.755Z,6.20
2019-03-15T08:21:48.030Z,6.10
2019-03-15T08:24:24.762Z,6.20
2019-03-15T08:27:07.124Z,6.10
2019-03-15T08:29:43.289Z,6.10
2019-03-15T08:32:26.012Z,6.10
2019-03-15T08:35:08.208Z,6.10
2019-03-15T08:37:50.391Z,5.90
2019-03-15T08:40:26.839Z,5.90
2019-03-15T08:43:09.744Z,5.80
2019-03-15T08:45:52.053Z,5.90
2019-03-15T08:48:27.801Z,5.90
2019-03-15T08:51:11.119Z,5.90
2019-03-15T08:53:46.678Z,5.80
2019-03-15T08:56:28.935Z,5.90
2019-03-15T08:59:04.530Z,5.80
2019-03-15T09:01:47.285Z,5.90
2019-03-15T09:04:30.035Z,5.90
2019-03-15T09:07:06.265Z,6.00
2019-03-15T09:09:42.158Z,6.00
2019-03-15T09:12:25.244Z,6.10
2019-03-15T09:15:08.302Z,6.10
2019-03-15T09:17:45.009Z,6.20
2019-03-15T09:20:30.128Z,6.30
2019-03-15T09:23:12.827Z,6.30
2019-03-15T09:25:56.054Z,6.40
2019-03-15T09:28:31.642Z,6.50
2019-03-15T09:31:14.997Z,6.70
2019-03-15T09:33:51.027Z,6.80
2019-03-15T09:36:34.151Z,6.80
2019-03-15T09:39:11.390Z,6.90
2019-03-15T09:41:53.912Z,6.80
2019-03-15T09:44:30.111Z,7.00
2019-03-15T09:47:12.927Z,7.00
2019-03-15T09:49:49.019Z,6.90
2019-03-15T09:52:31.570Z,7.10
2019-03-15T09:55:07.148Z,7.10
2019-03-15T09:57:49.139Z,7.10
2019-03-15T10:00:28.883Z,7.10
2019-03-15T10:03:04.767Z,7.20
2019-03-15T10:05:47.086Z,7.30
2019-03-15T10:08:29.205Z,7.40
2019-03-15T10:11:11.769Z,7.50
2019-03-15T10:13:47.829Z,7.50
2019-03-15T10:16:30.944Z,7.50
2019-03-15T10:19:07.321Z,7.60
2019-03-15T10:21:49.727Z,7.60
2019-03-15T10:24:32.611Z,7.50
2019-03-15T10:27:21.786Z,7.50
2019-03-15T10:29:57.775Z,7.50
2019-03-15T10:32:33.666Z,7.50
2019-03-15T10:35:16.210Z,7.50
2019-03-15T10:37:52.233Z,7.40
2019-03-15T10:40:38.186Z,7.30
2019-03-15T10:43:20.233Z,7.30
2019-03-15T10:45:56.282Z,7.20
2019-03-15T10:48:38.719Z,7.30
2019-03-15T10:51:21.005Z,7.50
2019-03-15T10:53:57.505Z,7.80
2019-03-15T10:56:59.588Z,7.90
2019-03-15T10:59:48.914Z,8.00
2019-03-15T11:02:31.621Z,7.90
2019-03-15T11:05:23.895Z,8.00
2019-03-15T11:08:07.315Z,7.90
2019-03-15T11:10:43.197Z,8.00
2019-03-15T11:13:32.237Z,8.10
2019-03-15T11:16:22.005Z,8.10
2019-03-15T11:19:10.881Z,8.30
2019-03-15T11:21:52.730Z,8.00
2019-03-15T11:24:36.493Z,8.00
2019-03-15T11:27:18.203Z,7.90
2019-03-15T11:29:54.630Z,7.90
2019-03-15T11:32:36.569Z,7.90
2019-03-15T11:35:15.007Z,7.90
2019-03-15T11:37:58.082Z,7.80
2019-03-15T11:40:33.553Z,7.90
2019-03-15T11:43:16.005Z,7.90
2019-03-15T11:45:51.745Z,7.80
2019-03-15T11:48:35.707Z,7.80
2019-03-15T11:51:18.300Z,7.80
2019-03-15T11:54:01.370Z,7.80
2019-03-15T11:56:43.880Z,8.00
2019-03-15T11:59:26.373Z,8.10
2019-03-15T12:02:04.164Z,8.30
2019-03-15T12:04:47.749Z,8.40
2019-03-15T12:07:36.418Z,8.30
2019-03-15T12:10:31.175Z,8.40
2019-03-15T12:13:13.844Z,8.30
2019-03-15T12:15:50.414Z,8.10
2019-03-15T12:18:32.755Z,8.10
2019-03-15T12:21:15.797Z,8.00
2019-03-15T12:23:58.095Z,7.90
2019-03-15T12:26:41.052Z,7.70
2019-03-15T12:29:16.708Z,7.70
2019-03-15T12:31:59.338Z,7.50
2019-03-15T12:34:48.633Z,7.20
2019-03-15T12:37:24.161Z,7.00
2019-03-15T12:40:06.674Z,6.80
2019-03-15T12:42:42.621Z,6.70
2019-03-15T12:45:27.586Z,6.70
2019-03-15T12:48:09.845Z,6.70
2019-03-15T12:50:46.312Z,6.70
2019-03-15T12:53:21.916Z,6.80
2019-03-15T12:56:04.485Z,6.70
2019-03-15T12:58:48.096Z,6.80
2019-03-15T13:01:31.234Z,6.70
2019-03-15T13:04:13.933Z,6.80
2019-03-15T13:06:57.109Z,6.90
2019-03-15T13:09:39.721Z,7.00
2019-03-15T13:12:22.278Z,7.00
2019-03-15T13:15:05.542Z,7.10
2019-03-15T13:17:47.879Z,7.10
2019-03-15T13:20:31.390Z,7.10
2019-03-15T13:23:20.739Z,7.10
2019-03-15T13:25:57.155Z,7.20
2019-03-15T13:28:40.190Z,7.10
2019-03-15T13:31:16.891Z,7.10
2019-03-15T13:33:59.877Z,7.10
2019-03-15T13:36:48.710Z,7.00
2019-03-15T13:39:24.460Z,7.10
2019-03-15T13:42:07.005Z,7.10
2019-03-15T13:44:43.047Z,7.00
2019-03-15T13:47:26.456Z,6.90
2019-03-15T13:50:09.142Z,6.90
2019-03-15T13:52:45.311Z,6.90
2019-03-15T13:55:21.525Z,7.00
2019-03-15T13:57:57.651Z,6.90
2019-03-15T14:00:40.290Z,7.00
2019-03-15T14:03:23.129Z,7.00
2019-03-15T14:06:06.096Z,7.00
2019-03-15T14:08:48.879Z,7.10
2019-03-15T14:11:24.380Z,7.10
2019-03-15T14:14:06.354Z,7.00
2019-03-15T14:16:49.094Z,7.10
2019-03-15T14:19:31.981Z,7.20
2019-03-15T14:22:14.316Z,7.20
2019-03-15T14:24:57.079Z,7.20
2019-03-15T14:27:37.833Z,7.30
2019-03-15T14:30:20.649Z,7.20
2019-03-15T14:33:03.336Z,7.20
2019-03-15T14:35:39.269Z,7.10
2019-03-15T14:38:22.177Z,7.20
2019-03-15T14:41:07.454Z,7.20
2019-03-15T14:43:48.706Z,7.20
2019-03-15T14:46:24.551Z,7.10
2019-03-15T14:49:07.271Z,7.10
2019-03-15T14:51:43.175Z,7.00
2019-03-15T14:54:26.109Z,7.00
2019-03-15T14:57:01.638Z,7.10
2019-03-15T14:59:44.061Z,7.10
2019-03-15T15:02:26.027Z,6.90
2019-03-15T15:05:01.869Z,6.90
2019-03-15T15:07:44.530Z,7.00
2019-03-15T15:10:33.288Z,7.00
2019-03-15T15:13:15.734Z,7.10
2019-03-15T15:15:52.481Z,7.00
2019-03-15T15:18:29.156Z,7.00
2019-03-15T15:21:12.189Z,6.90
2019-03-15T15:23:54.582Z,7.00
2019-03-15T15:26:30.494Z,6.90
2019-03-15T15:29:13.781Z,7.00
2019-03-15T15:31:52.265Z,7.10
2019-03-15T15:34:35.163Z,7.10
2019-03-15T15:37:11.381Z,7.20
2019-03-15T15:39:56.112Z,7.10
2019-03-15T15:42:32.540Z,7.10
2019-03-15T15:45:20.405Z,7.00
2019-03-15T15:47:56.508Z,7.10
2019-03-15T15:50:40.235Z,7.20
2019-03-15T15:53:22.287Z,7.20
2019-03-15T15:56:13.944Z,7.20
2019-03-15T15:58:55.991Z,7.20
2019-03-15T16:01:38.511Z,7.10
2019-03-15T16:04:22.710Z,7.30
2019-03-15T16:06:58.369Z,7.30
2019-03-15T16:09:34.291Z,7.40
2019-03-15T16:12:17.193Z,7.40
2019-03-15T16:14:59.960Z,7.60
2019-03-15T16:17:45.396Z,7.50
2019-03-15T16:20:27.185Z,7.60
2019-03-15T16:23:09.668Z,7.70
2019-03-15T16:25:45.652Z,7.60
2019-03-15T16:28:31.863Z,7.50
2019-03-15T16:31:12.607Z,7.40
2019-03-15T16:33:55.863Z,7.40
2019-03-15T16:36:31.843Z,7.40
2019-03-15T16:39:14.386Z,7.30
2019-03-15T16:41:56.349Z,7.30
2019-03-15T16:44:38.942Z,7.30
2019-03-15T16:47:15.224Z,7.40
2019-03-15T16:49:57.941Z,7.40
2019-03-15T16:52:33.832Z,7.50
2019-03-15T16:55:19.246Z,7.50
2019-03-15T16:58:01.855Z,7.50
2019-03-15T17:00:44.103Z,7.50
2019-03-15T17:03:20.409Z,7.50
2019-03-15T17:05:56.165Z,7.50
2019-03-15T17:08:39.035Z,7.50
2019-03-15T17:11:21.306Z,7.50
2019-03-15T17:14:03.570Z,7.50
2019-03-15T17:16:46.391Z,7.60
2019-03-15T17:19:21.992Z,7.60
2019-03-15T17:25:10.150Z,7.60
2019-03-15T17:27:53.289Z,7.60
2019-03-15T17:30:29.862Z,7.50
2019-03-15T17:33:12.427Z,7.60
2019-03-15T17:35:49.066Z,7.50
2019-03-15T17:38:32.160Z,7.60
2019-03-15T17:41:08.709Z,7.60
2019-03-15T17:43:51.179Z,7.60
2019-03-15T17:46:27.587Z,7.70
2019-03-15T17:49:10.232Z,7.70
2019-03-15T17:51:46.682Z,7.70
2019-03-15T17:54:28.615Z,7.70
2019-03-15T17:57:12.100Z,7.70
2019-03-15T17:59:48.043Z,7.70
2019-03-15T18:02:31.833Z,7.70
2019-03-15T18:05:07.126Z,7.60
2019-03-15T18:07:49.994Z,7.60
2019-03-15T18:10:17.054Z,7.60
2019-03-15T18:13:08.247Z,7.50
2019-03-15T18:15:51.367Z,7.50
2019-03-15T18:18:34.803Z,7.50
2019-03-15T18:26:18.582Z,7.60
2019-03-15T18:31:33.647Z,7.60
2019-03-15T18:34:15.954Z,7.60
2019-03-15T18:36:51.935Z,7.70
2019-03-15T18:39:34.208Z,7.70
2019-03-15T18:42:17.025Z,7.60
2019-03-15T18:45:00.453Z,7.60
2019-03-15T18:47:42.848Z,7.60
2019-03-15T18:50:41.850Z,7.50
2019-03-15T18:53:26.355Z,7.50
2019-03-15T18:56:02.933Z,7.50
2019-03-15T18:58:45.482Z,7.50
2019-03-15T19:01:22.132Z,7.50
2019-03-15T19:04:04.541Z,7.50
2019-03-15T19:06:41.094Z,7.40
2019-03-15T19:09:37.865Z,7.40
2019-03-15T19:12:24.962Z,7.20
2019-03-15T19:15:08.027Z,6.90
2019-03-15T19:17:44.706Z,7.00
2019-03-15T19:20:27.204Z,6.90
2019-03-15T19:23:03.050Z,6.90
2019-03-15T19:25:46.157Z,6.90
2019-03-15T19:28:29.427Z,6.90
2019-03-15T19:31:18.759Z,7.00
2019-03-15T19:33:56.975Z,6.80
2019-03-15T19:36:39.578Z,6.70
2019-03-15T19:39:28.914Z,6.80
2019-03-15T19:42:11.288Z,6.60
2019-03-15T19:44:47.796Z,6.60
2019-03-15T19:47:29.933Z,6.50
2019-03-15T19:50:14.391Z,6.50
2019-03-15T19:52:57.278Z,6.50
2019-03-15T19:55:51.874Z,6.50
2019-03-15T19:58:30.277Z,6.50
2019-03-15T20:01:08.077Z,6.40
2019-03-15T20:03:51.150Z,6.40
2019-03-15T20:06:29.178Z,6.30
2019-03-15T20:09:14.506Z,6.30
2019-03-15T20:11:51.303Z,6.30
2019-03-15T20:14:33.506Z,6.10
2019-03-15T20:17:09.441Z,6.00
2019-03-15T20:19:51.943Z,5.80
2019-03-15T20:22:28.363Z,5.50
2019-03-15T20:25:13.084Z,5.40
2019-03-15T20:27:49.424Z,5.40
2019-03-15T20:30:32.708Z,5.40
2019-03-15T20:33:09.246Z,5.30
2019-03-15T20:35:52.151Z,5.30
2019-03-15T20:38:35.011Z,5.30
2019-03-15T20:41:23.879Z,5.20
2019-03-15T20:44:27.439Z,5.20
2019-03-15T20:47:04.325Z,5.20
2019-03-15T20:49:53.371Z,5.20
2019-03-15T20:52:42.160Z,5.20
2019-03-15T20:55:31.518Z,5.20
2019-03-15T20:58:22.301Z,5.10
2019-03-15T21:01:11.421Z,5.10
2019-03-15T21:04:00.481Z,5.10
2019-03-15T21:06:52.863Z,5.10
2019-03-15T21:09:42.367Z,5.10
2019-03-15T21:12:24.759Z,5.10
2019-03-15T21:15:06.826Z,5.10
2019-03-15T21:17:42.382Z,5.10
2019-03-15T21:20:26.130Z,5.10
2019-03-15T21:22:53.069Z,5.20
2019-03-15T21:25:41.690Z,5.20
2019-03-15T21:28:23.970Z,5.30
2019-03-15T21:31:06.075Z,5.30
2019-03-15T21:33:55.736Z,5.40
2019-03-15T21:36:45.464Z,5.40
2019-03-15T21:39:12.506Z,5.40
2019-03-15T21:42:01.880Z,5.60
2019-03-15T21:44:54.171Z,5.60
2019-03-15T21:50:10.040Z,5.70
2019-03-15T21:53:19.382Z,5.60
2019-03-15T21:56:08.712Z,5.60
2019-03-15T22:01:24.138Z,5.50
2019-03-15T22:04:14.047Z,5.40
2019-03-15T22:07:03.850Z,5.40
2019-03-15T22:09:55.407Z,5.50
2019-03-15T22:12:45.369Z,5.50
2019-03-15T22:15:34.802Z,5.40
2019-03-15T22:18:24.561Z,5.40
2019-03-15T22:21:14.055Z,5.40
2019-03-15T22:23:41.101Z,5.40
2019-03-15T22:26:30.191Z,5.40
2019-03-15T22:29:13.004Z,5.30
2019-03-15T22:31:55.094Z,5.30
2019-03-15T22:34:45.017Z,5.30
2019-03-15T22:37:35.024Z,5.40
2019-03-15T22:40:26.551Z,5.40
2019-03-15T22:43:16.002Z,5.40
2019-03-15T22:46:05.063Z,5.40
2019-03-15T22:48:54.344Z,5.40
2019-03-15T22:51:43.308Z,5.50
2019-03-15T22:54:32.562Z,5.40
2019-03-15T22:57:21.169Z,5.50
2019-03-15T23:02:44.783Z,5.40
2019-03-15T23:05:34.195Z,5.40
2019-03-15T23:10:51.238Z,5.30
2019-03-15T23:13:40.351Z,5.20
2019-03-15T23:16:29.933Z,5.20
2019-03-15T23:19:19.628Z,5.00
2019-03-15T23:22:08.825Z,5.00
2019-03-15T23:24:51.115Z,4.90
2019-03-15T23:27:27.704Z,5.00
2019-03-15T23:30:11.266Z,4.90
2019-03-15T23:32:53.835Z,4.90
2019-03-15T23:40:41.663Z,4.70
2019-03-15T23:43:17.325Z,4.70
2019-03-15T23:45:59.756Z,4.60
2019-03-15T23:48:36.320Z,4.60
2019-03-15T23:51:18.742Z,4.50
2019-03-15T23:53:55.159Z,4.60
2019-03-15T23:56:37.241Z,4.60
2019-03-15T23:59:19.767Z,4.50
